Nearby METAR Reports

 

KBUF - Buffalo/Cheektow, New York, USA
Distance from station: 0 0mi, 0km
Updated: 03/01/2024 1:54pm
Mostly cloudy
Mostly cloudy
 Wind from S
Wind: S 6 mph , 9 km/h
Temperature: 48°F , 9°C
Wind Chill: 45°F , 7°C
Dew Point: 19°F , -7°C
Humidity: 32%
Barometer: 30.34 inHg , 1027.4 hPa
Clouds: Mostly cloudy
Visibility: 10 miles , 16 km
Cloud details: Mostly cloudy 27000 ft
2024/03/01 18:54 KBUF 011854Z 18005KT 10SM BKN270 09/M07 A3034 RMK AO2 SLP280 T00941067
KIAG - Niagara Falls, New York, USA
Distance from station: NW 16mi, 26km
Updated: 03/01/2024 1:53pm
Clear
Clear
 Wind from S
Wind: S 10 mph , 17 km/h
Temperature: 50°F , 10°C
Wind Chill: 46°F , 8°C
Dew Point: 18°F , -8°C
Humidity: 28%
Barometer: 30.33 inHg , 1027.1 hPa
Clouds: Clear
Visibility: 10 miles , 16 km
2024/03/01 18:53 KIAG 011853Z 18009KT 10SM CLR 10/M08 A3033 RMK AO2 SLP284 T01001078
 
CWPC - Port Colborne(Au, Ontario, Canada
Distance from station: W 27mi, 43km
Updated: 01/24/2023 6:00pm
NOT Current

 Wind from W
Wind: W 17 mph , 28 km/h
Temperature: 34°F , 1°C
Wind Chill: 23°F , -5°C
Dew Point: 27°F , -3°C
Humidity: 75%
2023/01/24 23:00 CWPC 242300Z AUTO 26015KT 01/M03 RMK AO1 PK WND 25024/2212 T00101031 50017
CYSN - St. Catharines A, Ontario, Canada
Distance from station: NW 29mi, 46km
Updated: 03/01/2024 2:00pm
Mostly cloudy
Mostly cloudy
 Wind from SSW
Wind: SSW 13 mph , 20 km/h, Gust: 18 mph , 30 km/h
Temperature: 50°F , 10°C
Wind Chill: 45°F , 7°C
Dew Point: 18°F , -8°C
Humidity: 28%
Barometer: 30.33 inHg , 1027.1 hPa
Clouds: Mostly cloudy
Visibility: 15 miles , 24 km
Cloud details: Mostly cloudy 25000 ft
2024/03/01 19:00 CYSN 011900Z 21011G16KT 15SM BKN250 10/M08 A3033 RMK CI5 SLP275
 
CWWZ - Port Weller (mar, Ontario, Canada
Distance from station: NW 33mi, 53km
Updated: 03/01/2024 2:00pm

 Wind from SSW
Wind: SSW 5 mph , 7 km/h
Temperature: 48°F , 9°C
Wind Chill: 46°F , 8°C
Dew Point: 21°F , -6°C
Humidity: 34%
2024/03/01 19:00 CWWZ 011900Z AUTO 21004KT 09/M06 RMK AO1 SLP276 T00921059 58026
CXVN - Vineland (au8), Ontario, Canada
Distance from station: WNW 38mi, 61km
Updated: 03/01/2024 2:00pm

 Wind from S
Wind: S 8 mph , 13 km/h
Temperature: 50°F , 10°C
Wind Chill: 47°F , 8°C
Dew Point: 21°F , -6°C
Humidity: 32%
2024/03/01 19:00 CXVN 011900Z AUTO 19007KT 10/M06 RMK AO1 SLP277 T00971060 58028
 
KDKK - Dunkirk, New York, USA
Distance from station: SW 41mi, 66km
Updated: 03/01/2024 1:53pm
Clear
Clear
 Wind from N
Wind: N 6 mph , 9 km/h
Temperature: 54°F , 12°C
Dew Point: 25°F , -4°C
Humidity: 33%
Barometer: 30.32 inHg , 1026.8 hPa
Clouds: Clear
Visibility: 10 miles , 16 km
2024/03/01 18:53 KDKK 011853Z AUTO 35005KT 10SM CLR 12/M04 A3032 RMK AO2 SLP272 T01171039
KOLE - Olean, New York, USA
Distance from station: SSE 52mi, 83km
Updated: 03/01/2024 2:35pm
Clear
Clear
 Wind from S
Wind: S 8 mph , 13 km/h
Temperature: 45°F , 7°C
Wind Chill: 41°F , 5°C
Dew Point: 21°F , -6°C
Humidity: 39%
Barometer: 30.31 inHg , 1026.4 hPa
Clouds: Clear
Visibility: 10 miles , 16 km
2024/03/01 19:35 KOLE 011935Z AUTO 17007KT 10SM CLR 07/M06 A3031 RMK AO2
 
KROC - Rochester, New York, USA
Distance from station: ENE 55mi, 88km
Updated: 03/01/2024 1:54pm
Few Clouds
Few Clouds
 Wind from SSW
Wind: SSW 10 mph , 17 km/h
Temperature: 50°F , 10°C
Wind Chill: 46°F , 8°C
Dew Point: 18°F , -8°C
Humidity: 28%
Barometer: 30.37 inHg , 1028.4 hPa
Clouds: Few Clouds
Visibility: 10 miles , 16 km
Cloud details: Few Clouds 25000 ft
2024/03/01 18:54 KROC 011854Z 20009KT 10SM FEW250 10/M08 A3037 RMK AO2 SLP294 T01001078
KDSV - Dansville, New York, USA
Distance from station: ESE 57mi, 92km
Updated: 03/01/2024 1:54pm
Clear
Clear
 Wind from S
Wind: S 10 mph , 17 km/h
Temperature: 52°F , 11°C
Dew Point: 19°F , -7°C
Humidity: 28%
Barometer: 30.35 inHg , 1027.8 hPa
Clouds: Clear
Visibility: 10 miles , 16 km
2024/03/01 18:54 KDSV 011854Z AUTO 18009KT 10SM CLR 11/M07 A3035 RMK AO2 SLP294 T01111067
 
CWWB - Burlington Piers, Ontario, Canada
Distance from station: WNW 59mi, 94km
Updated: 03/01/2024 2:00pm

 Wind from S
Wind: S 8 mph , 13 km/h
Temperature: 46°F , 8°C
Wind Chill: 42°F , 6°C
Dew Point: 28°F , -2°C
Humidity: 50%
2024/03/01 19:00 CWWB 011900Z AUTO 19007KT 08/M02 RMK AO1 SLP270 T00801016 58029
CYTZ - Toronto Il Vor, Ontario, Canada
Distance from station: NW 59mi, 95km
Updated: 03/01/2024 2:00pm
Clear
Clear
 Wind from S
Wind: S 9 mph , 15 km/h
Temperature: 43°F , 6°C
Wind Chill: 38°F , 3°C
Dew Point: 28°F , -2°C
Humidity: 57%
Barometer: 30.34 inHg , 1027.4 hPa
Clouds: Clear
Visibility: 9 miles , 14 km
2024/03/01 19:00 CYTZ 011900Z AUTO 19008KT 9SM CLR 06/M02 A3034 RMK SLP278
 
CXTO - Toronto City, Ontario, Canada
Distance from station: NW 61mi, 98km
Updated: 03/01/2024 2:00pm

 
Temperature: 46°F , 8°C
Dew Point: 21°F , -6°C
Humidity: 37%
2024/03/01 19:00 CXTO 011900Z AUTO 08/M06 RMK AO1 SLP275 T00831063 58024
KJHW - Jamestown, New York, USA
Distance from station: SSW 62mi, 99km
Updated: 03/01/2024 1:56pm
Clear
Clear
 Wind from S
Wind: S 15 mph , 24 km/h
Barometer: 30.30 inHg , 1026.1 hPa
Clouds: Clear
Visibility: 10 miles , 16 km
2024/03/01 18:56 KJHW 011856Z AUTO 18013KT 10SM CLR A3030 RMK AO2 SLPNO FZRANO $
 
CYHM - Hamilton Airport, Ontario, Canada
Distance from station: WNW 63mi, 101km
Updated: 03/01/2024 2:00pm
Mostly cloudy
Mostly cloudy
 Wind from S
Wind: S 8 mph , 13 km/h, Gust: 17 mph , 28 km/h
Temperature: 46°F , 8°C
Wind Chill: 42°F , 6°C
Dew Point: 21°F , -6°C
Humidity: 37%
Barometer: 30.30 inHg , 1026.1 hPa
Clouds: Mostly cloudy
Visibility: 15 miles , 24 km
Cloud details: Mostly cloudy 25000 ft
2024/03/01 19:00 CYHM 011900Z 18007G15KT 15SM BKN250 08/M06 A3030 RMK CI6 SLP273
CXHM - Hamilton Rbg Cs, Ontario, Canada
Distance from station: WNW 64mi, 102km
Updated: 03/01/2024 2:00pm

 Wind from S
Wind: S 6 mph , 9 km/h
Temperature: 48°F , 9°C
Wind Chill: 45°F , 7°C
Dew Point: 18°F , -8°C
Humidity: 29%
2024/03/01 19:00 CXHM 011900Z AUTO 19005KT 09/M08 RMK AO1 SLP273 T00911080 58028
 
CYYZ - Toronto/Pearson, Ontario, Canada
Distance from station: NW 67mi, 108km
Updated: 03/01/2024 2:00pm
Partly cloudy
Partly cloudy
 Wind from SSE
Wind: SSE 13 mph , 20 km/h, Gust: 18 mph , 30 km/h
Temperature: 46°F , 8°C
Wind Chill: 40°F , 4°C
Dew Point: 21°F , -6°C
Humidity: 37%
Barometer: 30.30 inHg , 1026.1 hPa
Clouds: Partly cloudy
Visibility: 15 miles , 24 km
Cloud details: Partly cloudy 26000 ft
2024/03/01 19:00 CYYZ 011900Z 15011G16KT 15SM SCT260 08/M06 A3030 RMK CI3 SLP270
CYOO - Oshawa, Ontario, Canada
Distance from station: N 68mi, 110km
Updated: 03/01/2024 2:00pm
Clear
Clear
 Wind from SSW
Wind: SSW 14 mph , 22 km/h, Gust: 20 mph , 31 km/h
Temperature: 45°F , 7°C
Wind Chill: 39°F , 4°C
Dew Point: 25°F , -4°C
Humidity: 46%
Barometer: 30.33 inHg , 1027.1 hPa
Clouds: Clear
Visibility: 9 miles , 14 km
2024/03/01 19:00 CYOO 011900Z AUTO 20012G17KT 9SM CLR 07/M04 A3033 RMK SLP280
 
KELZ - Wellsville, New York, USA
Distance from station: SE 69mi, 111km
Updated: 03/01/2024 1:56pm
Clear
Clear
 Wind from SSE
Wind: SSE 12 mph , 19 km/h, Gust: 21 mph , 33 km/h
Temperature: 52°F , 11°C
Dew Point: 19°F , -7°C
Humidity: 28%
Barometer: 30.34 inHg , 1027.4 hPa
Clouds: Clear
Visibility: 10 miles , 16 km
2024/03/01 18:56 KELZ 011856Z AUTO 16010G18KT 120V180 10SM CLR 11/M07 A3034 RMK AO2 SLP291 T01111072
CWNC - Cobourg (mars), Ontario, Canada
Distance from station: NNE 76mi, 122km
Updated: 03/01/2024 2:00pm

 Wind from W
Wind: W 3 mph , 6 km/h
Temperature: 41°F , 5°C
Dew Point: 28°F , -2°C
Humidity: 61%
2024/03/01 19:00 CWNC 011900Z AUTO 26003KT 05/M02 RMK AO1 SLP283 T00531015 58020